createdAt,value
2022-08-28T00:00:49.063Z,0.00
2022-08-28T00:01:49.099Z,0.00
2022-08-28T00:02:49.105Z,0.00
2022-08-28T00:03:49.029Z,0.00
2022-08-28T00:04:49.103Z,0.00
2022-08-28T00:05:49.008Z,0.00
2022-08-28T00:06:48.885Z,0.00
2022-08-28T00:07:49.009Z,0.00
2022-08-28T00:08:48.907Z,0.00
2022-08-28T00:09:48.911Z,0.00
2022-08-28T00:10:48.903Z,0.00
2022-08-28T00:11:48.904Z,0.00
2022-08-28T00:12:48.877Z,0.00
2022-08-28T00:13:48.901Z,0.00
2022-08-28T00:14:48.820Z,0.00
2022-08-28T00:15:48.892Z,0.00
2022-08-28T00:16:48.782Z,0.00
2022-08-28T00:17:48.844Z,0.00
2022-08-28T00:18:48.733Z,0.00
2022-08-28T00:19:48.720Z,0.00
2022-08-28T00:20:48.740Z,0.00
2022-08-28T00:21:48.690Z,0.00
2022-08-28T00:22:48.753Z,0.00
2022-08-28T00:23:48.660Z,0.00
2022-08-28T00:24:48.626Z,0.00
2022-08-28T00:25:48.626Z,0.00
2022-08-28T00:26:48.613Z,0.00
2022-08-28T00:27:48.590Z,0.00
2022-08-28T00:28:48.593Z,0.00
2022-08-28T00:29:48.582Z,0.00
2022-08-28T00:30:48.518Z,0.00
2022-08-28T00:31:48.516Z,0.00
2022-08-28T00:32:48.501Z,0.00
2022-08-28T00:33:53.507Z,0.00
2022-08-28T00:34:48.437Z,0.00
2022-08-28T00:35:48.428Z,0.00
2022-08-28T00:36:48.411Z,0.00
2022-08-28T00:37:48.398Z,0.00
2022-08-28T00:38:48.474Z,0.00
2022-08-28T00:39:48.346Z,0.00
2022-08-28T00:40:48.367Z,0.00
2022-08-28T00:41:48.312Z,0.00
2022-08-28T00:42:48.294Z,0.00
2022-08-28T00:43:48.279Z,0.00
2022-08-28T00:44:48.323Z,0.00
2022-08-28T00:45:48.223Z,0.00
2022-08-28T00:46:48.271Z,0.00
2022-08-28T00:47:48.262Z,0.00
2022-08-28T00:48:48.213Z,0.00
2022-08-28T00:49:48.199Z,0.00
2022-08-28T00:50:48.133Z,0.00
2022-08-28T00:51:48.129Z,0.00
2022-08-28T00:52:48.114Z,0.00
2022-08-28T00:53:48.083Z,0.00
2022-08-28T00:54:59.476Z,0.00
2022-08-28T00:55:49.068Z,0.00
2022-08-28T00:56:48.084Z,0.00
2022-08-28T00:57:48.020Z,0.00
2022-08-28T00:58:48.004Z,0.00
2022-08-28T00:59:47.973Z,0.00
2022-08-28T01:00:47.992Z,1.00
2022-08-28T01:01:48.012Z,0.00
2022-08-28T01:02:47.960Z,0.00
2022-08-28T01:03:47.921Z,0.00
2022-08-28T01:04:47.866Z,0.00
2022-08-28T01:05:47.999Z,0.00
2022-08-28T01:06:47.738Z,1.00
2022-08-28T01:07:47.852Z,0.00
2022-08-28T01:08:49.836Z,0.00
2022-08-28T01:09:47.796Z,0.00
2022-08-28T01:10:47.812Z,0.00
2022-08-28T01:11:47.852Z,0.00
2022-08-28T01:12:47.746Z,1.00
2022-08-28T01:13:47.731Z,0.00
2022-08-28T01:14:47.782Z,0.00
2022-08-28T01:15:47.917Z,0.00
2022-08-28T01:16:47.669Z,0.00
2022-08-28T01:17:47.648Z,0.00
2022-08-28T01:18:47.608Z,0.00
2022-08-28T01:19:47.609Z,0.00
2022-08-28T01:20:47.616Z,0.00
2022-08-28T01:21:47.685Z,0.00
2022-08-28T01:22:47.555Z,0.00
2022-08-28T01:23:47.548Z,0.00
2022-08-28T01:24:47.536Z,0.00
2022-08-28T01:25:47.481Z,0.00
2022-08-28T01:26:47.509Z,0.00
2022-08-28T01:27:47.484Z,0.00
2022-08-28T01:28:47.416Z,0.00
2022-08-28T01:29:48.031Z,0.00
2022-08-28T01:30:47.450Z,0.00
2022-08-28T01:31:47.517Z,0.00
2022-08-28T01:32:47.344Z,0.00
2022-08-28T01:33:47.336Z,0.00
2022-08-28T01:34:47.322Z,0.00
2022-08-28T01:35:47.323Z,0.00
2022-08-28T01:36:47.357Z,0.00
2022-08-28T01:37:47.278Z,0.00
2022-08-28T01:38:47.252Z,0.00
2022-08-28T01:39:47.304Z,0.00
2022-08-28T01:40:47.215Z,0.00
2022-08-28T01:41:47.208Z,0.00
2022-08-28T01:42:47.193Z,0.00
2022-08-28T01:43:47.165Z,0.00
2022-08-28T01:44:47.163Z,0.00
2022-08-28T01:45:47.122Z,0.00
2022-08-28T01:46:47.181Z,0.00
2022-08-28T01:47:47.118Z,0.00
2022-08-28T01:48:47.096Z,0.00
2022-08-28T01:49:47.052Z,0.00
2022-08-28T01:50:47.008Z,0.00
2022-08-28T01:51:47.033Z,0.00
2022-08-28T01:52:47.046Z,0.00
2022-08-28T01:53:46.996Z,0.00
2022-08-28T01:54:46.966Z,0.00
2022-08-28T01:55:46.974Z,1.00
2022-08-28T01:56:46.985Z,0.00
2022-08-28T01:57:46.970Z,1.00
2022-08-28T01:58:46.912Z,0.00
2022-08-28T01:59:46.893Z,0.00
2022-08-28T02:00:46.861Z,0.00
2022-08-28T02:01:46.923Z,0.00
2022-08-28T02:02:46.811Z,0.00
2022-08-28T02:03:46.859Z,0.00
2022-08-28T02:04:48.346Z,1.00
2022-08-28T02:05:46.777Z,0.00
2022-08-28T02:06:46.681Z,0.00
2022-08-28T02:07:46.736Z,0.00
2022-08-28T02:08:46.740Z,0.00
2022-08-28T02:09:46.688Z,0.00
2022-08-28T02:10:46.686Z,0.00
2022-08-28T02:11:47.000Z,0.00
2022-08-28T02:12:46.649Z,0.00
2022-08-28T02:13:50.737Z,0.00
2022-08-28T02:14:46.590Z,0.00
2022-08-28T02:15:46.726Z,0.00
2022-08-28T02:16:46.604Z,0.00
2022-08-28T02:17:46.541Z,0.00
2022-08-28T02:18:46.579Z,0.00
2022-08-28T02:19:46.527Z,0.00
2022-08-28T02:20:46.493Z,0.00
2022-08-28T02:21:46.468Z,0.00
2022-08-28T02:22:46.542Z,0.00
2022-08-28T02:23:46.424Z,0.00
2022-08-28T02:24:46.461Z,0.00
2022-08-28T02:25:46.379Z,0.00
2022-08-28T02:26:46.348Z,0.00
2022-08-28T02:27:46.335Z,0.00
2022-08-28T02:28:46.343Z,0.00
2022-08-28T02:29:46.332Z,0.00
2022-08-28T02:30:46.337Z,0.00
2022-08-28T02:31:46.293Z,0.00
2022-08-28T02:32:46.269Z,0.00
2022-08-28T02:33:46.227Z,0.00
2022-08-28T02:34:46.245Z,0.00
2022-08-28T02:35:46.184Z,0.00
2022-08-28T02:36:46.195Z,0.00
2022-08-28T02:37:47.766Z,0.00
2022-08-28T02:38:46.152Z,0.00
2022-08-28T02:39:46.177Z,0.00
2022-08-28T02:40:46.162Z,0.00
2022-08-28T02:41:46.094Z,0.00
2022-08-28T02:42:46.052Z,0.00
2022-08-28T02:43:46.069Z,0.00
2022-08-28T02:44:45.981Z,0.00
2022-08-28T02:45:45.982Z,0.00
2022-08-28T02:46:46.009Z,0.00
2022-08-28T02:47:45.966Z,0.00
2022-08-28T02:48:45.936Z,0.00
2022-08-28T02:49:46.020Z,0.00
2022-08-28T02:50:45.976Z,0.00
2022-08-28T02:51:45.911Z,0.00
2022-08-28T02:52:45.860Z,0.00
2022-08-28T02:53:45.844Z,0.00
2022-08-28T02:54:45.811Z,0.00
2022-08-28T02:55:45.811Z,0.00
2022-08-28T02:56:45.854Z,0.00
2022-08-28T02:57:45.794Z,0.00
2022-08-28T02:58:45.818Z,0.00
2022-08-28T02:59:45.847Z,0.00
2022-08-28T03:00:45.729Z,0.00
2022-08-28T03:01:45.726Z,0.00
2022-08-28T03:02:45.795Z,0.00
2022-08-28T03:03:45.673Z,0.00
2022-08-28T03:04:45.680Z,0.00
2022-08-28T03:05:45.672Z,0.00
2022-08-28T03:06:45.551Z,0.00
2022-08-28T03:07:45.642Z,0.00
2022-08-28T03:08:45.588Z,0.00
2022-08-28T03:09:46.134Z,0.00
2022-08-28T03:10:45.528Z,0.00
2022-08-28T03:11:45.536Z,0.00
2022-08-28T03:12:45.573Z,0.00
2022-08-28T03:13:45.501Z,0.00
2022-08-28T03:14:45.528Z,0.00
2022-08-28T03:15:45.437Z,0.00
2022-08-28T03:16:45.496Z,0.00
2022-08-28T03:17:45.484Z,0.00
2022-08-28T03:18:45.432Z,0.00
2022-08-28T03:19:45.371Z,0.00
2022-08-28T03:20:45.348Z,0.00
2022-08-28T03:21:45.357Z,0.00
2022-08-28T03:22:46.192Z,0.00
2022-08-28T03:23:45.338Z,0.00
2022-08-28T03:24:45.276Z,0.00
2022-08-28T03:25:45.248Z,0.00
2022-08-28T03:26:45.239Z,0.00
2022-08-28T03:27:45.218Z,0.00
2022-08-28T03:28:45.242Z,0.00
2022-08-28T03:29:45.174Z,0.00
2022-08-28T03:30:45.176Z,0.00
2022-08-28T03:31:45.144Z,0.00
2022-08-28T03:32:45.187Z,0.00
2022-08-28T03:33:45.152Z,0.00
2022-08-28T03:34:45.083Z,0.00
2022-08-28T03:35:45.074Z,0.00
2022-08-28T03:36:45.040Z,0.00
2022-08-28T03:37:45.028Z,1.00
2022-08-28T03:38:45.091Z,0.00
2022-08-28T03:39:45.014Z,0.00
2022-08-28T03:40:44.957Z,0.00
2022-08-28T03:41:45.016Z,0.00
2022-08-28T03:42:46.960Z,0.00
2022-08-28T03:43:46.031Z,0.00
2022-08-28T03:44:44.911Z,0.00
2022-08-28T03:45:44.955Z,0.00
2022-08-28T03:46:44.892Z,0.00
2022-08-28T03:47:44.841Z,0.00
2022-08-28T03:48:45.055Z,0.00
2022-08-28T03:49:44.863Z,0.00
2022-08-28T03:50:44.859Z,0.00
2022-08-28T03:51:44.783Z,0.00
2022-08-28T03:52:44.760Z,0.00
2022-08-28T03:53:44.775Z,0.00
2022-08-28T03:54:44.809Z,0.00
2022-08-28T03:55:44.732Z,0.00
2022-08-28T03:56:44.704Z,0.00
2022-08-28T03:57:44.712Z,0.00
2022-08-28T03:58:44.663Z,0.00
2022-08-28T03:59:44.693Z,0.00
2022-08-28T04:00:44.628Z,0.00
2022-08-28T04:01:44.633Z,0.00
2022-08-28T04:02:44.556Z,0.00
2022-08-28T04:03:44.699Z,0.00
2022-08-28T04:04:44.551Z,1.00
2022-08-28T04:05:44.594Z,1.00
2022-08-28T04:06:44.446Z,1.00
2022-08-28T04:07:44.485Z,0.00
2022-08-28T04:08:44.481Z,0.00
2022-08-28T04:09:44.474Z,0.00
2022-08-28T04:10:44.501Z,0.00
2022-08-28T04:11:44.464Z,1.00
2022-08-28T04:12:44.452Z,1.00
2022-08-28T04:13:44.377Z,1.00
2022-08-28T04:14:44.397Z,1.00
2022-08-28T04:15:44.447Z,2.00
2022-08-28T04:16:44.375Z,2.00
2022-08-28T04:17:44.309Z,2.00
2022-08-28T04:18:44.296Z,2.00
2022-08-28T04:19:44.247Z,3.00
2022-08-28T04:20:46.542Z,3.00
2022-08-28T04:21:44.265Z,3.00
2022-08-28T04:22:44.277Z,3.00
2022-08-28T04:23:44.204Z,5.00
2022-08-28T04:24:44.260Z,4.00
2022-08-28T04:25:44.200Z,6.00
2022-08-28T04:26:44.190Z,7.00
2022-08-28T04:27:44.121Z,7.00
2022-08-28T04:28:44.125Z,8.00
2022-08-28T04:29:44.093Z,7.00
2022-08-28T04:30:44.044Z,9.00
2022-08-28T04:31:44.157Z,11.00
2022-08-28T04:32:44.032Z,11.00
2022-08-28T04:33:44.077Z,12.00
2022-08-28T04:34:44.024Z,13.00
2022-08-28T04:35:43.945Z,17.00
2022-08-28T04:36:43.958Z,18.00
2022-08-28T04:37:44.009Z,17.00
2022-08-28T04:38:44.338Z,18.00
2022-08-28T04:39:43.937Z,18.00
2022-08-28T04:40:43.904Z,22.00
2022-08-28T04:41:43.889Z,23.00
2022-08-28T04:42:43.955Z,25.00
2022-08-28T04:43:43.821Z,27.00
2022-08-28T04:44:43.811Z,27.00
2022-08-28T04:45:43.824Z,30.00
2022-08-28T04:46:43.773Z,34.00
2022-08-28T04:47:43.782Z,36.00
2022-08-28T04:48:43.724Z,38.00
2022-08-28T04:49:43.766Z,41.00
2022-08-28T04:50:43.612Z,43.00
2022-08-28T04:51:43.716Z,45.00
2022-08-28T04:52:43.638Z,47.00
2022-08-28T04:53:43.686Z,51.00
2022-08-28T04:54:43.606Z,54.00
2022-08-28T04:55:54.944Z,57.00
2022-08-28T04:56:44.603Z,60.00
2022-08-28T04:57:43.477Z,62.00
2022-08-28T04:58:43.637Z,65.00
2022-08-28T04:59:43.537Z,66.00
2022-08-28T05:00:43.558Z,68.00
2022-08-28T05:01:43.476Z,71.00
2022-08-28T05:02:43.550Z,72.00
2022-08-28T05:03:43.461Z,74.00
2022-08-28T05:04:43.433Z,79.00
2022-08-28T05:05:43.427Z,80.00
2022-08-28T05:06:43.355Z,85.00
2022-08-28T05:07:43.409Z,87.00
2022-08-28T05:08:43.364Z,92.00
2022-08-28T05:09:43.361Z,96.00
2022-08-28T05:10:43.314Z,97.00
2022-08-28T05:11:43.294Z,100.00
2022-08-28T05:12:43.283Z,104.00
2022-08-28T05:13:43.245Z,108.00
2022-08-28T05:14:43.305Z,110.00
2022-08-28T05:15:43.226Z,113.00
2022-08-28T05:16:43.333Z,118.00
2022-08-28T05:17:43.179Z,123.00
2022-08-28T05:18:43.159Z,125.00
2022-08-28T05:19:43.184Z,134.00
2022-08-28T05:20:43.112Z,141.00
2022-08-28T05:21:43.121Z,144.00
2022-08-28T05:22:43.080Z,149.00
2022-08-28T05:23:43.126Z,159.00
2022-08-28T05:24:43.062Z,167.00
2022-08-28T05:25:43.071Z,172.00
2022-08-28T05:26:43.020Z,181.00
2022-08-28T05:27:43.036Z,192.00
2022-08-28T05:28:42.966Z,198.00
2022-08-28T05:29:42.953Z,208.00
2022-08-28T05:30:42.975Z,220.00
2022-08-28T05:31:42.958Z,232.00
2022-08-28T05:32:42.985Z,240.00
2022-08-28T05:33:42.890Z,251.00
2022-08-28T05:34:42.896Z,261.00
2022-08-28T05:35:42.890Z,273.00
2022-08-28T05:36:42.833Z,284.00
2022-08-28T05:37:42.814Z,304.00
2022-08-28T05:38:42.773Z,325.00
2022-08-28T05:39:42.788Z,335.00
2022-08-28T05:40:42.750Z,359.00
2022-08-28T05:41:42.855Z,395.00
2022-08-28T05:42:42.728Z,434.00
2022-08-28T05:43:42.684Z,465.00
2022-08-28T05:44:42.712Z,492.00
2022-08-28T05:45:42.717Z,520.00
2022-08-28T05:46:42.683Z,524.00
2022-08-28T05:47:42.625Z,553.00
2022-08-28T05:48:42.635Z,571.00
2022-08-28T05:49:42.589Z,582.00
2022-08-28T05:50:47.153Z,606.00
2022-08-28T05:51:43.608Z,626.00
2022-08-28T05:52:42.527Z,629.00
2022-08-28T05:53:42.558Z,634.00
2022-08-28T05:54:42.506Z,651.00
2022-08-28T05:55:42.480Z,669.00
2022-08-28T05:56:42.516Z,661.00
2022-08-28T05:57:42.531Z,701.00
2022-08-28T05:58:42.423Z,695.00
2022-08-28T05:59:42.389Z,714.00
2022-08-28T06:00:42.382Z,731.00
2022-08-28T06:01:42.404Z,1056.00
2022-08-28T06:02:42.382Z,791.00
2022-08-28T06:03:42.398Z,884.00
2022-08-28T06:04:42.356Z,822.00
2022-08-28T06:05:42.292Z,837.00
2022-08-28T06:06:42.220Z,937.00
2022-08-28T06:07:42.305Z,893.00
2022-08-28T06:08:58.164Z,965.00
2022-08-28T06:09:43.241Z,1010.00
2022-08-28T06:10:42.209Z,1220.00
2022-08-28T06:11:44.828Z,1992.00
2022-08-28T06:12:42.225Z,1842.00
2022-08-28T06:13:42.161Z,983.00
2022-08-28T06:14:42.107Z,1454.00
2022-08-28T06:15:42.165Z,1575.00
2022-08-28T06:16:42.099Z,1139.00
2022-08-28T06:17:42.074Z,1056.00
2022-08-28T06:18:42.086Z,1270.00
2022-08-28T06:19:42.039Z,1278.00
2022-08-28T06:20:41.990Z,1283.00
2022-08-28T06:21:42.016Z,1289.00
2022-08-28T06:22:41.981Z,1225.00
2022-08-28T06:23:41.988Z,1269.00
2022-08-28T06:24:41.986Z,1344.00
2022-08-28T06:25:41.918Z,1439.00
2022-08-28T06:26:41.903Z,1671.00
2022-08-28T06:27:41.889Z,1858.00
2022-08-28T06:28:42.915Z,1714.00
2022-08-28T06:29:41.858Z,1570.00
2022-08-28T06:30:49.026Z,1430.00
2022-08-28T06:31:42.886Z,1523.00
2022-08-28T06:32:41.817Z,2111.00
2022-08-28T06:33:41.868Z,2279.00
2022-08-28T06:34:41.786Z,1815.00
2022-08-28T06:35:41.719Z,1388.00
2022-08-28T06:36:41.719Z,1330.00
2022-08-28T06:37:41.691Z,1352.00
2022-08-28T06:38:41.687Z,1341.00
2022-08-28T06:39:41.719Z,1341.00
2022-08-28T06:40:41.700Z,1345.00
2022-08-28T06:41:41.649Z,1347.00
2022-08-28T06:42:41.609Z,1320.00
2022-08-28T06:43:41.583Z,1342.00
2022-08-28T06:44:41.605Z,1343.00
2022-08-28T06:45:41.581Z,1350.00
2022-08-28T06:46:41.564Z,1332.00
2022-08-28T06:47:41.529Z,1321.00
2022-08-28T06:48:41.511Z,1361.00
2022-08-28T06:49:41.583Z,1368.00
2022-08-28T06:50:41.472Z,1377.00
2022-08-28T06:51:41.447Z,1372.00
2022-08-28T06:52:41.432Z,1376.00
2022-08-28T06:53:41.420Z,1360.00
2022-08-28T06:54:41.420Z,1339.00
2022-08-28T06:55:42.419Z,1377.00
2022-08-28T06:56:41.381Z,1412.00
2022-08-28T06:57:41.363Z,1422.00
2022-08-28T06:58:41.357Z,1413.00
2022-08-28T06:59:41.305Z,1406.00
2022-08-28T07:00:41.300Z,1400.00
2022-08-28T07:01:41.389Z,1393.00
2022-08-28T07:02:41.314Z,1392.00
2022-08-28T07:03:42.674Z,1395.00
2022-08-28T07:04:41.231Z,1416.00
2022-08-28T07:05:41.227Z,1424.00
2022-08-28T07:06:41.094Z,1437.00
2022-08-28T07:07:41.203Z,1450.00
2022-08-28T07:08:41.166Z,1455.00
2022-08-28T07:09:41.126Z,1458.00
2022-08-28T07:10:41.098Z,1446.00
2022-08-28T07:11:41.136Z,1433.00
2022-08-28T07:12:41.113Z,1438.00
2022-08-28T07:13:41.050Z,1447.00
2022-08-28T07:14:41.012Z,1476.00
2022-08-28T07:15:41.931Z,1448.00
2022-08-28T07:16:41.079Z,1462.00
2022-08-28T07:17:40.984Z,1464.00
2022-08-28T07:18:40.954Z,1425.00
2022-08-28T07:19:40.990Z,1461.00
2022-08-28T07:20:40.914Z,1467.00
2022-08-28T07:21:40.964Z,1484.00
2022-08-28T07:22:40.923Z,1478.00
2022-08-28T07:23:40.874Z,1489.00
2022-08-28T07:24:40.875Z,1479.00
2022-08-28T07:25:40.878Z,1498.00
2022-08-28T07:26:40.859Z,1509.00
2022-08-28T07:27:40.813Z,1496.00
2022-08-28T07:28:40.812Z,1438.00
2022-08-28T07:29:40.790Z,1476.00
2022-08-28T07:30:40.799Z,1514.00
2022-08-28T07:31:40.910Z,1522.00
2022-08-28T07:32:40.748Z,1518.00
2022-08-28T07:33:40.707Z,1527.00
2022-08-28T07:34:40.752Z,1546.00
2022-08-28T07:35:40.687Z,1558.00
2022-08-28T07:36:40.681Z,1549.00
2022-08-28T07:37:41.018Z,1542.00
2022-08-28T07:38:40.590Z,1565.00
2022-08-28T07:39:40.616Z,1563.00
2022-08-28T07:40:40.555Z,1581.00
2022-08-28T07:41:40.572Z,1585.00
2022-08-28T07:42:40.566Z,1572.00
2022-08-28T07:43:40.603Z,1587.00
2022-08-28T07:44:40.500Z,1596.00
2022-08-28T07:45:40.520Z,1603.00
2022-08-28T07:46:40.471Z,1617.00
2022-08-28T07:47:40.480Z,1615.00
2022-08-28T07:48:40.444Z,1632.00
2022-08-28T07:49:40.423Z,1596.00
2022-08-28T07:50:41.383Z,1608.00
2022-08-28T07:51:40.401Z,1625.00
2022-08-28T07:52:40.442Z,1635.00
2022-08-28T07:53:40.321Z,1641.00
2022-08-28T07:54:40.314Z,1628.00
2022-08-28T07:55:40.320Z,1619.00
2022-08-28T07:56:40.297Z,1618.00
2022-08-28T07:57:40.254Z,1620.00
2022-08-28T07:58:40.259Z,1608.00
2022-08-28T07:59:40.274Z,1618.00
2022-08-28T08:00:40.210Z,1629.00
2022-08-28T08:01:40.235Z,1641.00
2022-08-28T08:02:40.183Z,1641.00
2022-08-28T08:03:40.267Z,1485.00
2022-08-28T08:04:40.097Z,1633.00
2022-08-28T08:05:40.095Z,1657.00
2022-08-28T08:06:39.999Z,1649.00
2022-08-28T08:07:41.819Z,1637.00
2022-08-28T08:08:40.192Z,1631.00
2022-08-28T08:09:40.068Z,1608.00
2022-08-28T08:10:39.985Z,1619.00
2022-08-28T08:11:39.997Z,1645.00
2022-08-28T08:12:39.999Z,1655.00
2022-08-28T08:13:39.964Z,1666.00
2022-08-28T08:14:39.942Z,1649.00
2022-08-28T08:15:40.023Z,1676.00
2022-08-28T08:16:39.899Z,1657.00
2022-08-28T08:17:39.901Z,1644.00
2022-08-28T08:18:39.874Z,1665.00
2022-08-28T08:19:39.779Z,1711.00
2022-08-28T08:20:39.799Z,1748.00
2022-08-28T08:21:39.796Z,1729.00
2022-08-28T08:22:39.722Z,1781.00
2022-08-28T08:23:39.693Z,1813.00
2022-08-28T08:24:39.792Z,1849.00
2022-08-28T08:25:39.881Z,1825.00
2022-08-28T08:26:39.873Z,1834.00
2022-08-28T08:27:42.908Z,1904.00
2022-08-28T08:28:39.659Z,1914.00
2022-08-28T08:29:39.604Z,1938.00
2022-08-28T08:30:39.550Z,1895.00
2022-08-28T08:31:39.733Z,1836.00
2022-08-28T08:32:39.515Z,1735.00
2022-08-28T08:33:39.587Z,1712.00
2022-08-28T08:34:39.608Z,1782.00
2022-08-28T08:35:39.455Z,1838.00
2022-08-28T08:36:39.480Z,1867.00
2022-08-28T08:37:39.529Z,1889.00
2022-08-28T08:38:39.477Z,1875.00
2022-08-28T08:39:39.387Z,1883.00
2022-08-28T08:40:39.417Z,1898.00
2022-08-28T08:41:39.354Z,1905.00
2022-08-28T08:42:39.317Z,1899.00
2022-08-28T08:43:39.294Z,1894.00
2022-08-28T08:44:39.297Z,1896.00
2022-08-28T08:45:39.289Z,1880.00
2022-08-28T08:46:39.316Z,1856.00
2022-08-28T08:47:39.194Z,1873.00
2022-08-28T08:48:39.196Z,1885.00
2022-08-28T08:49:39.329Z,1873.00
2022-08-28T08:50:39.196Z,1885.00
2022-08-28T08:51:39.154Z,1855.00
2022-08-28T08:52:39.129Z,1841.00
2022-08-28T08:53:39.307Z,1816.00
2022-08-28T08:54:39.096Z,1826.00
2022-08-28T08:55:39.199Z,1843.00
2022-08-28T08:56:39.050Z,1844.00
2022-08-28T08:57:39.126Z,1890.00
2022-08-28T08:58:39.025Z,1836.00
2022-08-28T08:59:39.082Z,1834.00
2022-08-28T09:00:38.993Z,1834.00
2022-08-28T09:01:39.151Z,1827.00
2022-08-28T09:02:38.980Z,1843.00
2022-08-28T09:03:38.971Z,1837.00
2022-08-28T09:04:40.016Z,1847.00
2022-08-28T09:05:38.889Z,1845.00
2022-08-28T09:06:38.899Z,1816.00
2022-08-28T09:07:38.983Z,1816.00
2022-08-28T09:08:38.848Z,1787.00
2022-08-28T09:09:38.934Z,1785.00
2022-08-28T09:10:38.800Z,1788.00
2022-08-28T09:11:38.907Z,1761.00
2022-08-28T09:12:38.786Z,1798.00
2022-08-28T09:13:38.840Z,1770.00
2022-08-28T09:14:38.788Z,1785.00
2022-08-28T09:15:38.834Z,1801.00
2022-08-28T09:16:38.710Z,1770.00
2022-08-28T09:17:38.832Z,1782.00
2022-08-28T09:18:38.666Z,1815.00
2022-08-28T09:19:38.728Z,1792.00
2022-08-28T09:20:38.612Z,1795.00
2022-08-28T09:21:38.671Z,1810.00
2022-08-28T09:22:38.610Z,1803.00
2022-08-28T09:23:38.647Z,1811.00
2022-08-28T09:24:38.548Z,1762.00
2022-08-28T09:25:38.664Z,1808.00
2022-08-28T09:26:41.118Z,1826.00
2022-08-28T09:27:39.473Z,1825.00
2022-08-28T09:28:38.469Z,1823.00
2022-08-28T09:29:38.526Z,1816.00
2022-08-28T09:30:38.449Z,1804.00
2022-08-28T09:31:38.486Z,1802.00
2022-08-28T09:32:38.433Z,1799.00
2022-08-28T09:33:38.499Z,1816.00
2022-08-28T09:34:39.208Z,1828.00
2022-08-28T09:35:39.265Z,1853.00
2022-08-28T09:36:38.325Z,1817.00
2022-08-28T09:37:39.212Z,1859.00
2022-08-28T09:38:38.301Z,1855.00
2022-08-28T09:39:38.344Z,1849.00
2022-08-28T09:40:38.310Z,1912.00
2022-08-28T09:41:38.326Z,1915.00
2022-08-28T09:42:38.213Z,1914.00
2022-08-28T09:43:38.364Z,1939.00
2022-08-28T09:44:38.164Z,1978.00
2022-08-28T09:45:38.174Z,2002.00
2022-08-28T09:46:38.182Z,2005.00
2022-08-28T09:47:38.685Z,2040.00
2022-08-28T09:48:39.163Z,2140.00
2022-08-28T09:49:38.174Z,2002.00
2022-08-28T09:50:38.073Z,1999.00
2022-08-28T09:51:38.108Z,2013.00
2022-08-28T09:52:38.025Z,2030.00
2022-08-28T09:53:38.138Z,1990.00
2022-08-28T09:54:38.024Z,2056.00
2022-08-28T09:55:38.188Z,2087.00
2022-08-28T09:56:37.967Z,2173.00
2022-08-28T09:57:38.020Z,2564.00
2022-08-28T09:58:38.020Z,4219.00
2022-08-28T09:59:38.072Z,2059.00
2022-08-28T10:00:37.889Z,2046.00
2022-08-28T10:01:37.967Z,2047.00
2022-08-28T10:02:37.849Z,2000.00
2022-08-28T10:03:37.913Z,1991.00
2022-08-28T10:04:37.941Z,2061.00
2022-08-28T10:05:38.727Z,3901.00
2022-08-28T10:06:37.860Z,7810.00
2022-08-28T10:07:38.812Z,4519.00
2022-08-28T10:08:37.715Z,2337.00
2022-08-28T10:09:37.841Z,2034.00
2022-08-28T10:10:37.702Z,2025.00
2022-08-28T10:11:37.766Z,2509.00
2022-08-28T10:12:37.629Z,4138.00
2022-08-28T10:13:37.737Z,3457.00
2022-08-28T10:14:37.624Z,2257.00
2022-08-28T10:15:42.473Z,1973.00
2022-08-28T10:16:38.551Z,1988.00
2022-08-28T10:17:38.107Z,1982.00
2022-08-28T10:18:37.558Z,1996.00
2022-08-28T10:19:37.597Z,2003.00
2022-08-28T10:20:37.544Z,2013.00
2022-08-28T10:21:37.564Z,2012.00
2022-08-28T10:22:37.459Z,2029.00
2022-08-28T10:23:37.541Z,2018.00
2022-08-28T10:24:37.441Z,2183.00
2022-08-28T10:25:37.555Z,2000.00
2022-08-28T10:26:37.389Z,5361.00
2022-08-28T10:27:38.307Z,3216.00
2022-08-28T10:28:37.343Z,3854.00
2022-08-28T10:29:37.429Z,2035.00
2022-08-28T10:30:37.378Z,2416.00
2022-08-28T10:31:37.380Z,2096.00
2022-08-28T10:32:37.280Z,3043.00
2022-08-28T10:33:37.382Z,2239.00
2022-08-28T10:34:37.230Z,3979.00
2022-08-28T10:35:37.281Z,2043.00
2022-08-28T10:36:37.220Z,2130.00
2022-08-28T10:37:37.267Z,2016.00
2022-08-28T10:38:37.164Z,2045.00
2022-08-28T10:39:37.235Z,3971.00
2022-08-28T10:40:37.159Z,6748.00
2022-08-28T10:41:37.231Z,4937.00
2022-08-28T10:42:37.078Z,2218.00
2022-08-28T10:43:37.140Z,2065.00
2022-08-28T10:44:37.041Z,2079.00
2022-08-28T10:45:37.099Z,2063.00
2022-08-28T10:46:37.093Z,2047.00
2022-08-28T10:47:37.099Z,2050.00
2022-08-28T10:48:37.141Z,2038.00
2022-08-28T10:49:37.806Z,2043.00
2022-08-28T10:50:37.022Z,2061.00
2022-08-28T10:51:40.530Z,2219.00
2022-08-28T10:52:37.966Z,2051.00
2022-08-28T10:53:36.945Z,2234.00
2022-08-28T10:54:36.865Z,4409.00
2022-08-28T10:55:36.914Z,3931.00
2022-08-28T10:56:36.810Z,2349.00
2022-08-28T10:57:39.685Z,2480.00
2022-08-28T10:58:36.880Z,2492.00
2022-08-28T10:59:42.050Z,2153.00
2022-08-28T11:00:37.736Z,2166.00
2022-08-28T11:01:36.934Z,2123.00
2022-08-28T11:02:36.786Z,2163.00
2022-08-28T11:03:37.241Z,2267.00
2022-08-28T11:04:36.670Z,2103.00
2022-08-28T11:05:36.737Z,2109.00
2022-08-28T11:06:36.616Z,2111.00
2022-08-28T11:07:36.776Z,2118.00
2022-08-28T11:08:36.627Z,2202.00
2022-08-28T11:09:36.679Z,2127.00
2022-08-28T11:10:36.542Z,2191.00
2022-08-28T11:11:37.324Z,2224.00
2022-08-28T11:12:36.494Z,2266.00
2022-08-28T11:13:36.625Z,2983.00
2022-08-28T11:14:47.959Z,3167.00
2022-08-28T11:15:37.748Z,2196.00
2022-08-28T11:16:36.672Z,2158.00
2022-08-28T11:17:36.555Z,3710.00
2022-08-28T11:18:36.419Z,5122.00
2022-08-28T11:19:38.684Z,4249.00
2022-08-28T11:20:36.397Z,2146.00
2022-08-28T11:21:36.456Z,2119.00
2022-08-28T11:22:36.340Z,2160.00
2022-08-28T11:23:37.254Z,2129.00
2022-08-28T11:24:36.296Z,2094.00
2022-08-28T11:25:36.439Z,2209.00
2022-08-28T11:26:36.246Z,2025.00
2022-08-28T11:27:36.541Z,2001.00
2022-08-28T11:28:36.193Z,1972.00
2022-08-28T11:29:36.346Z,2007.00
2022-08-28T11:30:36.227Z,1978.00
2022-08-28T11:31:36.312Z,1979.00
2022-08-28T11:32:36.131Z,1977.00
2022-08-28T11:33:36.192Z,1971.00
2022-08-28T11:34:36.133Z,1968.00
2022-08-28T11:35:36.202Z,2006.00
2022-08-28T11:36:36.065Z,1946.00
2022-08-28T11:37:36.150Z,1918.00
2022-08-28T11:38:36.025Z,1915.00
2022-08-28T11:39:36.132Z,1909.00
2022-08-28T11:40:36.059Z,1898.00
2022-08-28T11:41:36.080Z,1909.00
2022-08-28T11:42:35.939Z,1924.00
2022-08-28T11:43:36.001Z,1878.00
2022-08-28T11:44:35.944Z,1880.00
2022-08-28T11:45:35.981Z,1892.00
2022-08-28T11:46:35.917Z,1881.00
2022-08-28T11:47:36.008Z,1881.00
2022-08-28T11:48:35.837Z,1899.00
2022-08-28T11:49:36.841Z,1918.00
2022-08-28T11:50:35.810Z,1889.00
2022-08-28T11:51:35.888Z,1913.00
2022-08-28T11:52:35.764Z,1913.00
2022-08-28T11:53:35.828Z,1888.00
2022-08-28T11:54:35.713Z,1945.00
2022-08-28T11:55:35.829Z,1933.00
2022-08-28T11:56:35.758Z,1958.00
2022-08-28T11:57:35.774Z,1945.00
2022-08-28T11:58:35.648Z,1976.00
2022-08-28T11:59:35.795Z,1996.00
2022-08-28T12:00:35.653Z,2038.00
2022-08-28T12:01:36.350Z,2045.00
2022-08-28T12:02:35.776Z,2053.00
2022-08-28T12:03:35.627Z,2100.00
2022-08-28T12:04:35.565Z,2134.00
2022-08-28T12:05:35.609Z,2166.00
2022-08-28T12:06:35.504Z,2163.00
2022-08-28T12:07:35.585Z,2179.00
2022-08-28T12:08:35.519Z,2239.00
2022-08-28T12:09:35.518Z,2242.00
2022-08-28T12:10:35.412Z,2230.00
2022-08-28T12:11:35.497Z,2221.00
2022-08-28T12:12:35.382Z,2217.00
2022-08-28T12:13:35.452Z,2224.00
2022-08-28T12:14:35.351Z,2323.00
2022-08-28T12:15:35.498Z,2392.00
2022-08-28T12:16:35.338Z,2426.00
2022-08-28T12:17:35.371Z,2268.00
2022-08-28T12:18:35.256Z,2262.00
2022-08-28T12:19:35.317Z,2434.00
2022-08-28T12:20:36.220Z,3515.00
2022-08-28T12:21:35.393Z,2734.00
2022-08-28T12:22:35.290Z,2368.00
2022-08-28T12:23:35.270Z,2400.00
2022-08-28T12:24:35.189Z,3792.00
2022-08-28T12:25:35.222Z,3815.00
2022-08-28T12:26:35.106Z,3974.00
2022-08-28T12:27:35.209Z,4500.00
2022-08-28T12:28:35.847Z,5506.00
2022-08-28T12:29:35.149Z,5999.00
2022-08-28T12:30:35.085Z,6465.00
2022-08-28T12:31:35.142Z,6909.00
2022-08-28T12:32:35.065Z,7468.00
2022-08-28T12:33:35.068Z,8373.00
2022-08-28T12:34:34.960Z,10239.00